Burbank, California
Current Conditions -  °F | °C
As of 6:53 AM on Thursday 18 Dec 2014 (Local Time) from KBUR Reporting Station
Broken Clouds Broken Clouds  
Wind Chill: 47°   Ceiling: 8500
Heat Index: 47°   Visibility: 10mi
Dew Point: 42°   Wind: 0mph
Humidity: 83%   Direction: NA
Pressure: 30.15"   Gusts: NA
Location:  34.18°N, 118.3°W
Report Text: KBUR 181453Z 00000KT 10SM BKN085 BKN110 08/06 A3015 RMK AO2 SLP203 T00830056 53011 $
Loading
Personal Weather Stations






























Interactive Weather Map New forecast layout! Learn more

10-Day Weather Forecast

Advertisements
Track Severe Weather on mobile